Portada
METAR-TAF:

METAR-TAF

Aeroports :

Eastman, Geòrgia, Estats Units d'Amèrica

latitud: 32-12-59N, longitud: 083-07-43W, altitud: 93 m

Observació

L'informe es va fer fa 28 minuts, a les 14:55 UTC
Vent 6 kt del Nord/Nord-Est
Temperatura 10°C
Humitat 93%
Pressió 1019 hPa
Visibilitat: 11.3 km
Cel cobert a una alçada de 600 ft
plugim

METAR: KEZM 151455Z AUTO 03006KT 7SM -DZ OVC006 10/09 A3009 RMK AO2 T00950090

Hora: 10:23 (15:23 UTC)


TAF: manca

Observacions i pronòstics meteorològics de més de 4000 aeroports (METAR i TAF).

Les estacions disponibles són els punts grocs i vermells al mapa.

Posi el ratolí al punt desitjat per veure el nom de l'estació.

Feu clic per veure les observacions i els pronòstics meteorològics.

Per canviar el mapa: feu clic els botons verds amb una creu de color negre per apropar; al botó verd amb un guió per allunyar la imatge; o en les fletxes verdes per a mapes adjacents.


METAR-TAF: